GLD1794 LPLA-LPHR

Flight info

Callsign GLD1794
Flight time 0h 19m
Altitude 12000
Route LM H153 NOTMA
Aircraft A319/M-SDE3FGHIRWY/LB1

Departure

Time 2026-05-09 13:42
Airport Lajes Airport (LPLA)

Arrival

Time 2026-05-09 14:02
Airport Horta Airport (LPHR)
Time Latitude Longitude Altitude Speed Heading
2026-05-09 13:34 38.75602 -27.08791 178 ft 0 kts 275°
2026-05-09 13:35 38.75604 -27.08795 178 ft 1 kts 291°
2026-05-09 13:36 38.75614 -27.08800 178 ft 2 kts 350°
2026-05-09 13:36 38.75620 -27.08787 178 ft 3 kts 71°
2026-05-09 13:36 38.75612 -27.08738 178 ft 9 kts 122°
2026-05-09 13:36 38.75551 -27.08666 178 ft 13 kts 141°
2026-05-09 13:37 38.75476 -27.08590 178 ft 14 kts 141°
2026-05-09 13:37 38.75490 -27.08483 178 ft 14 kts 49°
2026-05-09 13:37 38.75565 -27.08436 179 ft 12 kts 336°
2026-05-09 13:37 38.75598 -27.08469 179 ft 0 kts 321°
2026-05-09 13:38 38.75600 -27.08471 179 ft 1 kts 320°
2026-05-09 13:38 38.75607 -27.08478 179 ft 0 kts 320°
2026-05-09 13:41 38.75608 -27.08480 179 ft 1 kts 320°
2026-05-09 13:41 38.75619 -27.08490 179 ft 4 kts 320°
2026-05-09 13:41 38.75776 -27.08652 181 ft 65 kts 321°
2026-05-09 13:41 38.76310 -27.09210 195 ft 128 kts 321°
2026-05-09 13:42 38.77026 -27.09953 725 ft 135 kts 322°
2026-05-09 13:42 38.77738 -27.10731 1537 ft 135 kts 322°
2026-05-09 13:42 38.78428 -27.11595 2151 ft 147 kts 321°
2026-05-09 13:42 38.79203 -27.12598 2572 ft 169 kts 321°
2026-05-09 13:43 38.80090 -27.13761 2971 ft 195 kts 321°
2026-05-09 13:43 38.81107 -27.15070 3485 ft 219 kts 320°
2026-05-09 13:43 38.82243 -27.16501 4160 ft 236 kts 321°
2026-05-09 13:43 38.83425 -27.17994 5093 ft 242 kts 319°
2026-05-09 13:44 38.84360 -27.19839 6081 ft 257 kts 295°
2026-05-09 13:44 38.84553 -27.22192 7033 ft 273 kts 274°
2026-05-09 13:44 38.84465 -27.24641 7985 ft 277 kts 274°
2026-05-09 13:44 38.84366 -27.27096 8893 ft 282 kts 274°
2026-05-09 13:45 38.84264 -27.29628 9810 ft 286 kts 274°
2026-05-09 13:45 38.84165 -27.32219 10466 ft 300 kts 275°
2026-05-09 13:45 38.84070 -27.35030 10847 ft 322 kts 273°
2026-05-09 13:45 38.83969 -27.37903 11524 ft 330 kts 272°
2026-05-09 13:46 38.83856 -27.40923 11996 ft 337 kts 272°
2026-05-09 13:46 38.83740 -27.43884 12118 ft 334 kts 272°
2026-05-09 13:46 38.83621 -27.46797 12143 ft 322 kts 272°
2026-05-09 13:46 38.83505 -27.49649 12143 ft 318 kts 273°
2026-05-09 13:47 38.83394 -27.52477 12148 ft 317 kts 272°
2026-05-09 13:47 38.83288 -27.55296 12149 ft 317 kts 273°
2026-05-09 13:47 38.83183 -27.58121 12148 ft 317 kts 272°
2026-05-09 13:47 38.83077 -27.60942 12154 ft 317 kts 273°
2026-05-09 13:48 38.82970 -27.63764 12154 ft 317 kts 272°
2026-05-09 13:48 38.82861 -27.66585 12154 ft 317 kts 273°
2026-05-09 13:48 38.82749 -27.69406 12154 ft 317 kts 273°
2026-05-09 13:48 38.82637 -27.72228 12163 ft 317 kts 272°
2026-05-09 13:49 38.82523 -27.75054 12169 ft 317 kts 272°
2026-05-09 13:49 38.82407 -27.77877 12146 ft 317 kts 272°
2026-05-09 13:49 38.82292 -27.80706 12153 ft 317 kts 273°
2026-05-09 13:49 38.82178 -27.83530 12164 ft 317 kts 272°
2026-05-09 13:50 38.82063 -27.86351 12168 ft 317 kts 273°
2026-05-09 13:50 38.81944 -27.89165 12050 ft 313 kts 272°
2026-05-09 13:50 38.81824 -27.91873 11912 ft 295 kts 273°
2026-05-09 13:50 38.81708 -27.94427 11742 ft 280 kts 272°
2026-05-09 13:51 38.81635 -27.96063 11483 ft 276 kts 273°
2026-05-09 13:51 38.81532 -27.98507 11093 ft 273 kts 274°
2026-05-09 13:51 38.81404 -28.01717 10637 ft 271 kts 273°
2026-05-09 13:51 38.81246 -28.04124 10293 ft 273 kts 266°
2026-05-09 13:52 38.80688 -28.06473 9923 ft 279 kts 251°
2026-05-09 13:52 38.79710 -28.08629 9543 ft 281 kts 241°
2026-05-09 13:52 38.78629 -28.10713 9170 ft 279 kts 241°
2026-05-09 13:52 38.77907 -28.12114 8913 ft 278 kts 242°
2026-05-09 13:53 38.76846 -28.14180 8539 ft 277 kts 242°
2026-05-09 13:53 38.75807 -28.16209 8153 ft 275 kts 242°
2026-05-09 13:53 38.74757 -28.18259 7763 ft 274 kts 242°
2026-05-09 13:53 38.73712 -28.20299 7227 ft 273 kts 242°
2026-05-09 13:54 38.72675 -28.22314 6795 ft 270 kts 242°
2026-05-09 13:54 38.71647 -28.24307 6382 ft 268 kts 242°
2026-05-09 13:54 38.70623 -28.26295 5978 ft 266 kts 242°
2026-05-09 13:54 38.69610 -28.28274 5586 ft 264 kts 243°
2026-05-09 13:55 38.68624 -28.30249 5246 ft 261 kts 243°
2026-05-09 13:55 38.67666 -28.32187 5137 ft 253 kts 243°
2026-05-09 13:55 38.66737 -28.34069 5019 ft 251 kts 244°
2026-05-09 13:55 38.65808 -28.35960 5007 ft 251 kts 244°
2026-05-09 13:56 38.64883 -28.37852 5012 ft 250 kts 244°
2026-05-09 13:56 38.63967 -28.39735 5005 ft 249 kts 244°
2026-05-09 13:56 38.63049 -28.41622 5006 ft 250 kts 244°
2026-05-09 13:56 38.62126 -28.43517 4949 ft 252 kts 244°
2026-05-09 13:57 38.61181 -28.45443 4349 ft 260 kts 242°
2026-05-09 13:57 38.60093 -28.47302 3752 ft 262 kts 235°
2026-05-09 13:57 38.58867 -28.49036 3166 ft 263 kts 232°
2026-05-09 13:57 38.57631 -28.50747 2570 ft 261 kts 233°
2026-05-09 13:58 38.56420 -28.52419 2251 ft 248 kts 233°
2026-05-09 13:58 38.55318 -28.53931 2223 ft 225 kts 233°
2026-05-09 13:58 38.54274 -28.55370 1968 ft 217 kts 234°
2026-05-09 13:58 38.53299 -28.56788 1762 ft 203 kts 242°
2026-05-09 13:59 38.52623 -28.58235 1677 ft 177 kts 254°
2026-05-09 13:59 38.52231 -28.59600 1569 ft 152 kts 266°
2026-05-09 13:59 38.52046 -28.60860 1511 ft 139 kts 275°
2026-05-09 13:59 38.52011 -28.62061 1506 ft 134 kts 283°
2026-05-09 14:00 38.52012 -28.63262 1304 ft 134 kts 281°
2026-05-09 14:00 38.52009 -28.64050 1175 ft 133 kts 281°
2026-05-09 14:00 38.52004 -28.65623 927 ft 133 kts 280°
2026-05-09 14:00 38.52006 -28.66805 737 ft 134 kts 278°
2026-05-09 14:01 38.52002 -28.67996 576 ft 134 kts 279°
2026-05-09 14:01 38.51992 -28.69181 371 ft 135 kts 279°
2026-05-09 14:01 38.51989 -28.70365 204 ft 131 kts 278°
2026-05-09 14:01 38.51986 -28.71451 111 ft 110 kts 273°
2026-05-09 14:02 38.51991 -28.72139 96 ft 46 kts 269°
2026-05-09 14:02 38.51987 -28.72365 89 ft 20 kts 269°
2026-05-09 14:02 38.52019 -28.72491 87 ft 15 kts 302°
2026-05-09 14:02 38.51987 -28.72520 87 ft 10 kts 103°
2026-05-09 14:03 38.51989 -28.72428 88 ft 11 kts 89°
2026-05-09 14:03 38.51991 -28.72315 88 ft 14 kts 90°
2026-05-09 14:03 38.51989 -28.72201 92 ft 11 kts 91°
2026-05-09 14:03 38.51989 -28.72118 99 ft 9 kts 89°
2026-05-09 14:04 38.51990 -28.72033 101 ft 10 kts 89°
2026-05-09 14:04 38.51991 -28.71926 101 ft 14 kts 89°
2026-05-09 14:04 38.51992 -28.71783 102 ft 18 kts 89°
2026-05-09 14:04 38.52015 -28.71647 109 ft 13 kts 34°
2026-05-09 14:05 38.52069 -28.71639 116 ft 5 kts 359°
2026-05-09 14:05 38.52104 -28.71616 117 ft 8 kts 64°
2026-05-09 14:05 38.52101 -28.71552 117 ft 0 kts 119°